sensor_id;sensor_type;location;lat;lon;timestamp;P1;durP1;ratioP1;P2;durP2;ratioP2
12410;SDS011;6269;51.044;13.692;2024-03-23T00:52:25;11.25;;;7.55;;
12410;SDS011;6269;51.044;13.692;2024-03-23T00:54:56;8.73;;;7.38;;
12410;SDS011;6269;51.044;13.692;2024-03-23T00:57:31;10.85;;;8.15;;
12410;SDS011;6269;51.044;13.692;2024-03-23T01:00:04;10.30;;;8.00;;
12410;SDS011;6269;51.044;13.692;2024-03-23T01:02:43;13.05;;;8.23;;
12410;SDS011;6269;51.044;13.692;2024-03-23T01:05:15;11.50;;;8.40;;
12410;SDS011;6269;51.044;13.692;2024-03-23T01:07:47;13.52;;;8.60;;
12410;SDS011;6269;51.044;13.692;2024-03-23T01:10:18;13.20;;;9.10;;
12410;SDS011;6269;51.044;13.692;2024-03-23T01:12:53;12.32;;;9.27;;
12410;SDS011;6269;51.044;13.692;2024-03-23T01:15:24;14.10;;;9.68;;
12410;SDS011;6269;51.044;13.692;2024-03-23T01:17:56;15.55;;;10.93;;
12410;SDS011;6269;51.044;13.692;2024-03-23T01:20:29;18.08;;;10.38;;
12410;SDS011;6269;51.044;13.692;2024-03-23T01:23:03;16.00;;;11.38;;
12410;SDS011;6269;51.044;13.692;2024-03-23T01:25:36;14.63;;;10.75;;
12410;SDS011;6269;51.044;13.692;2024-03-23T01:28:14;17.90;;;11.10;;
12410;SDS011;6269;51.044;13.692;2024-03-23T01:30:47;18.48;;;11.80;;
12410;SDS011;6269;51.044;13.692;2024-03-23T01:33:19;17.48;;;12.60;;
12410;SDS011;6269;51.044;13.692;2024-03-23T01:35:52;17.80;;;12.60;;
12410;SDS011;6269;51.044;13.692;2024-03-23T01:38:24;18.25;;;13.55;;
12410;SDS011;6269;51.044;13.692;2024-03-23T01:40:56;20.17;;;13.80;;
12410;SDS011;6269;51.044;13.692;2024-03-23T01:43:30;18.90;;;12.68;;
12410;SDS011;6269;51.044;13.692;2024-03-23T01:46:02;18.50;;;14.20;;
12410;SDS011;6269;51.044;13.692;2024-03-23T01:48:34;21.38;;;15.00;;
12410;SDS011;6269;51.044;13.692;2024-03-23T01:51:07;19.23;;;14.05;;
12410;SDS011;6269;51.044;13.692;2024-03-23T01:53:40;26.10;;;15.63;;
12410;SDS011;6269;51.044;13.692;2024-03-23T01:56:12;22.88;;;15.50;;
12410;SDS011;6269;51.044;13.692;2024-03-23T01:58:52;22.42;;;15.55;;
12410;SDS011;6269;51.044;13.692;2024-03-23T02:01:25;26.88;;;17.08;;
12410;SDS011;6269;51.044;13.692;2024-03-23T02:03:56;26.20;;;16.88;;
12410;SDS011;6269;51.044;13.692;2024-03-23T02:06:30;26.15;;;17.45;;
12410;SDS011;6269;51.044;13.692;2024-03-23T02:09:02;28.67;;;18.35;;
12410;SDS011;6269;51.044;13.692;2024-03-23T02:11:35;26.50;;;19.10;;
12410;SDS011;6269;51.044;13.692;2024-03-23T02:16:57;26.35;;;18.08;;
12410;SDS011;6269;51.044;13.692;2024-03-23T02:19:31;30.38;;;19.23;;
12410;SDS011;6269;51.044;13.692;2024-03-23T02:22:03;28.60;;;18.13;;
12410;SDS011;6269;51.044;13.692;2024-03-23T02:24:37;27.60;;;17.95;;
12410;SDS011;6269;51.044;13.692;2024-03-23T02:27:09;28.80;;;18.35;;
12410;SDS011;6269;51.044;13.692;2024-03-23T02:29:41;24.98;;;17.63;;
12410;SDS011;6269;51.044;13.692;2024-03-23T02:32:13;27.85;;;19.27;;
12410;SDS011;6269;51.044;13.692;2024-03-23T02:34:44;27.98;;;18.33;;
12410;SDS011;6269;51.044;13.692;2024-03-23T02:37:17;24.50;;;16.48;;
12410;SDS011;6269;51.044;13.692;2024-03-23T02:39:51;28.25;;;18.17;;
12410;SDS011;6269;51.044;13.692;2024-03-23T02:42:25;29.38;;;19.58;;
12410;SDS011;6269;51.044;13.692;2024-03-23T02:44:58;24.25;;;17.25;;
12410;SDS011;6269;51.044;13.692;2024-03-23T02:47:30;29.67;;;18.70;;
12410;SDS011;6269;51.044;13.692;2024-03-23T02:50:02;30.90;;;19.77;;
12410;SDS011;6269;51.044;13.692;2024-03-23T02:52:35;29.35;;;20.20;;
12410;SDS011;6269;51.044;13.692;2024-03-23T02:55:10;29.52;;;19.45;;
12410;SDS011;6269;51.044;13.692;2024-03-23T02:57:43;28.40;;;19.70;;
12410;SDS011;6269;51.044;13.692;2024-03-23T03:00:14;31.48;;;19.55;;
12410;SDS011;6269;51.044;13.692;2024-03-23T03:02:46;31.50;;;21.27;;
12410;SDS011;6269;51.044;13.692;2024-03-23T03:07:58;31.45;;;20.17;;
12410;SDS011;6269;51.044;13.692;2024-03-23T03:10:32;30.88;;;20.67;;
12410;SDS011;6269;51.044;13.692;2024-03-23T03:13:04;26.88;;;19.42;;
12410;SDS011;6269;51.044;13.692;2024-03-23T03:15:37;27.45;;;19.40;;
12410;SDS011;6269;51.044;13.692;2024-03-23T03:18:10;27.23;;;19.77;;
12410;SDS011;6269;51.044;13.692;2024-03-23T03:20:42;30.77;;;20.48;;
12410;SDS011;6269;51.044;13.692;2024-03-23T03:23:14;31.00;;;21.13;;
12410;SDS011;6269;51.044;13.692;2024-03-23T03:25:48;30.65;;;20.23;;
12410;SDS011;6269;51.044;13.692;2024-03-23T03:28:20;30.85;;;21.08;;
12410;SDS011;6269;51.044;13.692;2024-03-23T03:30:51;33.47;;;22.45;;
12410;SDS011;6269;51.044;13.692;2024-03-23T03:33:24;32.15;;;20.70;;
12410;SDS011;6269;51.044;13.692;2024-03-23T03:35:56;29.70;;;20.02;;
12410;SDS011;6269;51.044;13.692;2024-03-23T03:38:28;30.27;;;19.80;;
12410;SDS011;6269;51.044;13.692;2024-03-23T03:41:03;32.22;;;21.20;;
12410;SDS011;6269;51.044;13.692;2024-03-23T03:43:35;31.77;;;21.08;;
12410;SDS011;6269;51.044;13.692;2024-03-23T03:46:06;35.00;;;21.73;;
12410;SDS011;6269;51.044;13.692;2024-03-23T03:48:38;29.33;;;20.45;;
12410;SDS011;6269;51.044;13.692;2024-03-23T03:51:09;27.38;;;19.88;;
12410;SDS011;6269;51.044;13.692;2024-03-23T03:53:43;34.53;;;21.67;;
12410;SDS011;6269;51.044;13.692;2024-03-23T03:56:17;33.08;;;20.95;;
12410;SDS011;6269;51.044;13.692;2024-03-23T03:58:49;31.42;;;20.67;;
12410;SDS011;6269;51.044;13.692;2024-03-23T04:01:20;32.45;;;20.98;;
12410;SDS011;6269;51.044;13.692;2024-03-23T04:03:52;32.67;;;21.25;;
12410;SDS011;6269;51.044;13.692;2024-03-23T04:06:23;30.40;;;20.65;;
12410;SDS011;6269;51.044;13.692;2024-03-23T04:08:55;30.90;;;21.00;;
12410;SDS011;6269;51.044;13.692;2024-03-23T04:11:29;30.13;;;20.98;;
12410;SDS011;6269;51.044;13.692;2024-03-23T04:14:01;34.67;;;21.13;;
12410;SDS011;6269;51.044;13.692;2024-03-23T04:16:33;33.83;;;22.73;;
12410;SDS011;6269;51.044;13.692;2024-03-23T04:19:06;35.58;;;23.20;;
12410;SDS011;6269;51.044;13.692;2024-03-23T04:21:37;36.72;;;23.42;;
12410;SDS011;6269;51.044;13.692;2024-03-23T04:24:09;36.58;;;23.45;;
12410;SDS011;6269;51.044;13.692;2024-03-23T04:29:25;35.25;;;22.13;;
12410;SDS011;6269;51.044;13.692;2024-03-23T04:31:57;35.72;;;21.73;;
12410;SDS011;6269;51.044;13.692;2024-03-23T04:34:30;33.95;;;21.65;;
12410;SDS011;6269;51.044;13.692;2024-03-23T04:37:02;36.40;;;21.58;;
12410;SDS011;6269;51.044;13.692;2024-03-23T04:39:35;36.47;;;23.83;;
12410;SDS011;6269;51.044;13.692;2024-03-23T04:42:10;22.88;;;13.85;;
12410;SDS011;6269;51.044;13.692;2024-03-23T04:44:42;34.08;;;21.85;;
12410;SDS011;6269;51.044;13.692;2024-03-23T04:47:14;36.40;;;23.33;;
12410;SDS011;6269;51.044;13.692;2024-03-23T04:52:25;33.85;;;23.23;;
12410;SDS011;6269;51.044;13.692;2024-03-23T04:54:58;40.45;;;25.17;;
12410;SDS011;6269;51.044;13.692;2024-03-23T04:57:32;38.88;;;24.30;;
12410;SDS011;6269;51.044;13.692;2024-03-23T05:00:04;41.05;;;26.00;;
12410;SDS011;6269;51.044;13.692;2024-03-23T05:02:39;41.60;;;25.02;;
12410;SDS011;6269;51.044;13.692;2024-03-23T05:07:49;41.00;;;26.75;;
12410;SDS011;6269;51.044;13.692;2024-03-23T05:10:21;39.67;;;24.75;;
12410;SDS011;6269;51.044;13.692;2024-03-23T05:13:03;41.00;;;26.40;;
12410;SDS011;6269;51.044;13.692;2024-03-23T05:15:35;40.17;;;25.55;;
12410;SDS011;6269;51.044;13.692;2024-03-23T05:18:06;42.00;;;26.02;;
12410;SDS011;6269;51.044;13.692;2024-03-23T05:20:38;40.65;;;25.60;;
12410;SDS011;6269;51.044;13.692;2024-03-23T05:23:10;46.33;;;27.10;;
12410;SDS011;6269;51.044;13.692;2024-03-23T05:25:41;43.22;;;26.08;;
12410;SDS011;6269;51.044;13.692;2024-03-23T05:28:15;43.92;;;25.38;;
12410;SDS011;6269;51.044;13.692;2024-03-23T05:30:49;38.20;;;24.45;;
12410;SDS011;6269;51.044;13.692;2024-03-23T05:33:22;42.88;;;26.60;;
12410;SDS011;6269;51.044;13.692;2024-03-23T05:35:56;38.28;;;23.95;;
12410;SDS011;6269;51.044;13.692;2024-03-23T05:38:28;38.20;;;24.30;;
12410;SDS011;6269;51.044;13.692;2024-03-23T05:41:00;35.47;;;23.45;;
12410;SDS011;6269;51.044;13.692;2024-03-23T05:43:34;36.03;;;23.40;;
12410;SDS011;6269;51.044;13.692;2024-03-23T05:46:10;36.22;;;23.23;;
12410;SDS011;6269;51.044;13.692;2024-03-23T05:48:43;36.47;;;24.23;;
12410;SDS011;6269;51.044;13.692;2024-03-23T05:51:15;38.28;;;24.55;;
12410;SDS011;6269;51.044;13.692;2024-03-23T05:53:47;40.25;;;23.98;;
12410;SDS011;6269;51.044;13.692;2024-03-23T05:56:19;38.42;;;23.50;;
12410;SDS011;6269;51.044;13.692;2024-03-23T05:58:53;34.40;;;22.98;;
12410;SDS011;6269;51.044;13.692;2024-03-23T06:01:25;33.72;;;23.27;;
12410;SDS011;6269;51.044;13.692;2024-03-23T06:03:58;34.83;;;23.42;;
12410;SDS011;6269;51.044;13.692;2024-03-23T06:06:32;37.00;;;23.33;;
12410;SDS011;6269;51.044;13.692;2024-03-23T06:09:04;35.85;;;23.58;;
12410;SDS011;6269;51.044;13.692;2024-03-23T06:11:36;35.08;;;24.08;;
12410;SDS011;6269;51.044;13.692;2024-03-23T06:14:10;37.75;;;23.60;;
12410;SDS011;6269;51.044;13.692;2024-03-23T06:16:42;36.92;;;24.30;;
12410;SDS011;6269;51.044;13.692;2024-03-23T06:19:13;35.22;;;22.98;;
12410;SDS011;6269;51.044;13.692;2024-03-23T06:21:45;39.88;;;25.63;;
12410;SDS011;6269;51.044;13.692;2024-03-23T06:24:16;39.17;;;24.98;;
12410;SDS011;6269;51.044;13.692;2024-03-23T06:26:48;37.58;;;24.48;;
12410;SDS011;6269;51.044;13.692;2024-03-23T06:29:22;38.42;;;24.95;;
12410;SDS011;6269;51.044;13.692;2024-03-23T06:31:54;41.50;;;27.00;;
12410;SDS011;6269;51.044;13.692;2024-03-23T06:34:25;38.03;;;25.02;;
12410;SDS011;6269;51.044;13.692;2024-03-23T06:36:57;38.25;;;23.70;;
12410;SDS011;6269;51.044;13.692;2024-03-23T06:39:29;37.75;;;24.50;;
12410;SDS011;6269;51.044;13.692;2024-03-23T06:42:01;37.47;;;23.95;;
12410;SDS011;6269;51.044;13.692;2024-03-23T06:44:35;34.10;;;22.92;;
12410;SDS011;6269;51.044;13.692;2024-03-23T06:47:06;38.33;;;23.08;;
12410;SDS011;6269;51.044;13.692;2024-03-23T06:49:38;36.63;;;23.52;;
12410;SDS011;6269;51.044;13.692;2024-03-23T06:52:09;34.17;;;21.85;;
12410;SDS011;6269;51.044;13.692;2024-03-23T06:54:41;37.92;;;22.38;;
12410;SDS011;6269;51.044;13.692;2024-03-23T06:57:13;34.38;;;22.73;;
12410;SDS011;6269;51.044;13.692;2024-03-23T06:59:47;34.45;;;22.27;;
12410;SDS011;6269;51.044;13.692;2024-03-23T07:02:19;33.90;;;22.75;;
12410;SDS011;6269;51.044;13.692;2024-03-23T07:04:50;34.47;;;22.60;;
12410;SDS011;6269;51.044;13.692;2024-03-23T07:07:22;35.08;;;20.83;;
12410;SDS011;6269;51.044;13.692;2024-03-23T07:09:53;32.15;;;21.73;;
12410;SDS011;6269;51.044;13.692;2024-03-23T07:12:25;31.27;;;20.73;;
12410;SDS011;6269;51.044;13.692;2024-03-23T07:14:59;30.05;;;21.35;;
12410;SDS011;6269;51.044;13.692;2024-03-23T07:17:31;36.30;;;22.23;;
12410;SDS011;6269;51.044;13.692;2024-03-23T07:20:03;32.78;;;21.05;;
12410;SDS011;6269;51.044;13.692;2024-03-23T07:25:35;35.58;;;22.98;;
12410;SDS011;6269;51.044;13.692;2024-03-23T07:28:08;32.22;;;22.25;;
12410;SDS011;6269;51.044;13.692;2024-03-23T07:30:42;33.40;;;21.83;;
12410;SDS011;6269;51.044;13.692;2024-03-23T07:33:14;38.42;;;22.05;;
12410;SDS011;6269;51.044;13.692;2024-03-23T07:35:47;37.22;;;24.42;;
12410;SDS011;6269;51.044;13.692;2024-03-23T07:38:19;35.55;;;22.67;;
12410;SDS011;6269;51.044;13.692;2024-03-23T07:40:50;37.85;;;23.10;;
12410;SDS011;6269;51.044;13.692;2024-03-23T07:43:23;38.42;;;23.45;;
12410;SDS011;6269;51.044;13.692;2024-03-23T07:45:57;34.97;;;22.98;;
12410;SDS011;6269;51.044;13.692;2024-03-23T07:48:29;36.35;;;22.13;;
12410;SDS011;6269;51.044;13.692;2024-03-23T07:51:02;36.30;;;21.92;;
12410;SDS011;6269;51.044;13.692;2024-03-23T07:53:36;31.05;;;19.85;;
12410;SDS011;6269;51.044;13.692;2024-03-23T07:56:08;28.90;;;19.67;;
12410;SDS011;6269;51.044;13.692;2024-03-23T07:58:43;30.63;;;19.90;;
12410;SDS011;6269;51.044;13.692;2024-03-23T08:01:20;30.35;;;19.40;;
12410;SDS011;6269;51.044;13.692;2024-03-23T08:03:56;28.50;;;18.60;;
12410;SDS011;6269;51.044;13.692;2024-03-23T08:06:29;34.70;;;20.13;;
12410;SDS011;6269;51.044;13.692;2024-03-23T08:09:01;25.85;;;18.00;;
12410;SDS011;6269;51.044;13.692;2024-03-23T08:11:33;30.70;;;19.90;;
12410;SDS011;6269;51.044;13.692;2024-03-23T08:14:05;27.67;;;19.52;;
12410;SDS011;6269;51.044;13.692;2024-03-23T08:16:39;28.38;;;19.75;;
12410;SDS011;6269;51.044;13.692;2024-03-23T08:19:11;26.98;;;18.88;;
12410;SDS011;6269;51.044;13.692;2024-03-23T08:21:43;26.67;;;18.50;;
12410;SDS011;6269;51.044;13.692;2024-03-23T08:24:14;31.13;;;18.40;;
12410;SDS011;6269;51.044;13.692;2024-03-23T08:26:46;28.60;;;19.23;;
12410;SDS011;6269;51.044;13.692;2024-03-23T08:29:19;26.70;;;18.23;;
12410;SDS011;6269;51.044;13.692;2024-03-23T08:31:53;25.63;;;18.45;;
12410;SDS011;6269;51.044;13.692;2024-03-23T08:34:25;26.30;;;17.73;;
12410;SDS011;6269;51.044;13.692;2024-03-23T08:36:57;25.95;;;19.05;;
12410;SDS011;6269;51.044;13.692;2024-03-23T08:39:29;25.40;;;16.70;;
12410;SDS011;6269;51.044;13.692;2024-03-23T08:42:00;24.55;;;18.15;;
12410;SDS011;6269;51.044;13.692;2024-03-23T08:44:32;28.13;;;19.23;;
12410;SDS011;6269;51.044;13.692;2024-03-23T08:47:07;25.35;;;18.05;;
12410;SDS011;6269;51.044;13.692;2024-03-23T08:49:38;27.58;;;18.88;;
12410;SDS011;6269;51.044;13.692;2024-03-23T08:52:10;34.55;;;21.08;;
12410;SDS011;6269;51.044;13.692;2024-03-23T08:54:42;26.25;;;18.52;;
12410;SDS011;6269;51.044;13.692;2024-03-23T08:57:14;27.85;;;20.00;;
12410;SDS011;6269;51.044;13.692;2024-03-23T08:59:46;28.45;;;19.77;;
12410;SDS011;6269;51.044;13.692;2024-03-23T09:02:20;29.15;;;20.20;;
12410;SDS011;6269;51.044;13.692;2024-03-23T09:04:52;28.02;;;19.48;;
12410;SDS011;6269;51.044;13.692;2024-03-23T09:07:24;29.65;;;20.05;;
12410;SDS011;6269;51.044;13.692;2024-03-23T09:09:55;32.80;;;20.88;;
12410;SDS011;6269;51.044;13.692;2024-03-23T09:12:27;29.42;;;19.33;;
12410;SDS011;6269;51.044;13.692;2024-03-23T09:14:59;22.92;;;16.95;;
12410;SDS011;6269;51.044;13.692;2024-03-23T09:17:35;25.48;;;17.83;;
12410;SDS011;6269;51.044;13.692;2024-03-23T09:20:08;17.08;;;12.55;;
12410;SDS011;6269;51.044;13.692;2024-03-23T09:22:41;15.80;;;11.55;;
12410;SDS011;6269;51.044;13.692;2024-03-23T09:25:13;17.95;;;13.63;;
12410;SDS011;6269;51.044;13.692;2024-03-23T09:27:49;14.07;;;11.18;;
12410;SDS011;6269;51.044;13.692;2024-03-23T09:30:21;14.18;;;11.00;;
12410;SDS011;6269;51.044;13.692;2024-03-23T09:32:56;15.70;;;11.50;;
12410;SDS011;6269;51.044;13.692;2024-03-23T09:35:27;13.88;;;11.75;;
12410;SDS011;6269;51.044;13.692;2024-03-23T09:38:08;14.13;;;11.45;;
12410;SDS011;6269;51.044;13.692;2024-03-23T09:40:50;14.90;;;11.20;;
12410;SDS011;6269;51.044;13.692;2024-03-23T09:43:25;17.70;;;12.50;;
12410;SDS011;6269;51.044;13.692;2024-03-23T09:45:57;17.48;;;12.98;;
12410;SDS011;6269;51.044;13.692;2024-03-23T09:48:34;17.08;;;12.70;;
12410;SDS011;6269;51.044;13.692;2024-03-23T09:51:07;18.70;;;12.57;;
12410;SDS011;6269;51.044;13.692;2024-03-23T09:53:41;18.92;;;12.68;;
12410;SDS011;6269;51.044;13.692;2024-03-23T09:56:17;12.82;;;7.88;;
12410;SDS011;6269;51.044;13.692;2024-03-23T09:58:50;7.55;;;4.80;;
12410;SDS011;6269;51.044;13.692;2024-03-23T10:01:21;6.63;;;4.13;;
12410;SDS011;6269;51.044;13.692;2024-03-23T10:03:56;6.78;;;2.80;;
12410;SDS011;6269;51.044;13.692;2024-03-23T10:06:31;4.63;;;2.88;;
12410;SDS011;6269;51.044;13.692;2024-03-23T10:09:05;2.85;;;1.52;;
12410;SDS011;6269;51.044;13.692;2024-03-23T10:11:51;1.55;;;0.70;;
12410;SDS011;6269;51.044;13.692;2024-03-23T10:14:33;1.98;;;0.70;;
12410;SDS011;6269;51.044;13.692;2024-03-23T10:17:12;0.70;;;0.60;;
12410;SDS011;6269;51.044;13.692;2024-03-23T10:19:48;0.77;;;0.50;;
12410;SDS011;6269;51.044;13.692;2024-03-23T10:22:27;0.90;;;0.47;;
12410;SDS011;6269;51.044;13.692;2024-03-23T10:25:06;0.57;;;0.40;;
12410;SDS011;6269;51.044;13.692;2024-03-23T10:27:43;1.23;;;0.30;;
12410;SDS011;6269;51.044;13.692;2024-03-23T10:30:29;1.08;;;0.50;;
12410;SDS011;6269;51.044;13.692;2024-03-23T10:33:09;7.95;;;0.90;;
12410;SDS011;6269;51.044;13.692;2024-03-23T10:35:44;1.00;;;0.55;;
12410;SDS011;6269;51.044;13.692;2024-03-23T10:38:18;1.10;;;0.75;;
12410;SDS011;6269;51.044;13.692;2024-03-23T10:40:54;2.42;;;0.63;;
12410;SDS011;6269;51.044;13.692;2024-03-23T10:43:29;1.10;;;0.85;;
12410;SDS011;6269;51.044;13.692;2024-03-23T10:46:04;1.17;;;0.80;;
12410;SDS011;6269;51.044;13.692;2024-03-23T10:48:37;1.67;;;0.60;;
12410;SDS011;6269;51.044;13.692;2024-03-23T10:51:12;0.70;;;0.50;;
12410;SDS011;6269;51.044;13.692;2024-03-23T10:53:46;1.27;;;0.60;;
12410;SDS011;6269;51.044;13.692;2024-03-23T10:56:21;1.75;;;0.43;;
12410;SDS011;6269;51.044;13.692;2024-03-23T10:58:54;1.05;;;0.45;;
12410;SDS011;6269;51.044;13.692;2024-03-23T11:01:27;0.50;;;0.40;;
12410;SDS011;6269;51.044;13.692;2024-03-23T11:04:00;0.50;;;0.32;;
12410;SDS011;6269;51.044;13.692;2024-03-23T11:06:38;0.40;;;0.40;;
12410;SDS011;6269;51.044;13.692;2024-03-23T11:15:05;0.57;;;0.30;;
12410;SDS011;6269;51.044;13.692;2024-03-23T11:17:43;1.17;;;0.50;;
12410;SDS011;6269;51.044;13.692;2024-03-23T11:20:35;0.40;;;0.30;;
12410;SDS011;6269;51.044;13.692;2024-03-23T11:23:17;1.40;;;0.40;;
12410;SDS011;6269;51.044;13.692;2024-03-23T11:25:59;0.30;;;0.13;;
12410;SDS011;6269;51.044;13.692;2024-03-23T11:28:36;0.65;;;0.30;;
12410;SDS011;6269;51.044;13.692;2024-03-23T11:31:14;0.50;;;0.40;;
12410;SDS011;6269;51.044;13.692;2024-03-23T11:33:54;0.55;;;0.30;;
12410;SDS011;6269;51.044;13.692;2024-03-23T11:37:04;0.63;;;0.38;;
12410;SDS011;6269;51.044;13.692;2024-03-23T11:39:46;0.50;;;0.43;;
12410;SDS011;6269;51.044;13.692;2024-03-23T11:42:28;0.32;;;0.32;;
12410;SDS011;6269;51.044;13.692;2024-03-23T11:45:06;0.88;;;0.50;;
12410;SDS011;6269;51.044;13.692;2024-03-23T11:47:40;0.40;;;0.40;;
12410;SDS011;6269;51.044;13.692;2024-03-23T11:50:18;0.73;;;0.52;;
12410;SDS011;6269;51.044;13.692;2024-03-23T11:52:51;1.27;;;0.50;;
12410;SDS011;6269;51.044;13.692;2024-03-23T11:55:25;0.30;;;0.30;;
12410;SDS011;6269;51.044;13.692;2024-03-23T11:58:05;0.70;;;0.60;;
12410;SDS011;6269;51.044;13.692;2024-03-23T12:00:54;0.82;;;0.35;;
12410;SDS011;6269;51.044;13.692;2024-03-23T12:03:28;0.45;;;0.38;;
12410;SDS011;6269;51.044;13.692;2024-03-23T12:06:03;0.57;;;0.40;;
12410;SDS011;6269;51.044;13.692;2024-03-23T12:08:52;0.50;;;0.43;;
12410;SDS011;6269;51.044;13.692;2024-03-23T12:11:57;0.73;;;0.60;;
12410;SDS011;6269;51.044;13.692;2024-03-23T12:14:41;0.95;;;0.57;;
12410;SDS011;6269;51.044;13.692;2024-03-23T12:17:14;0.50;;;0.50;;
12410;SDS011;6269;51.044;13.692;2024-03-23T12:19:48;0.90;;;0.77;;
12410;SDS011;6269;51.044;13.692;2024-03-23T12:22:22;1.10;;;0.80;;
12410;SDS011;6269;51.044;13.692;2024-03-23T12:24:55;1.00;;;0.70;;
12410;SDS011;6269;51.044;13.692;2024-03-23T12:27:30;1.00;;;0.90;;
12410;SDS011;6269;51.044;13.692;2024-03-23T12:30:02;1.35;;;1.10;;
12410;SDS011;6269;51.044;13.692;2024-03-23T12:35:13;1.48;;;1.00;;
12410;SDS011;6269;51.044;13.692;2024-03-23T12:37:46;1.10;;;1.00;;
12410;SDS011;6269;51.044;13.692;2024-03-23T12:40:17;1.42;;;1.30;;
12410;SDS011;6269;51.044;13.692;2024-03-23T12:42:52;1.30;;;1.20;;
12410;SDS011;6269;51.044;13.692;2024-03-23T12:45:23;3.10;;;1.10;;
12410;SDS011;6269;51.044;13.692;2024-03-23T12:47:55;1.38;;;1.27;;
12410;SDS011;6269;51.044;13.692;2024-03-23T12:50:27;1.23;;;1.13;;
12410;SDS011;6269;51.044;13.692;2024-03-23T12:52:59;1.88;;;1.67;;
12410;SDS011;6269;51.044;13.692;2024-03-23T12:55:32;1.58;;;1.48;;
12410;SDS011;6269;51.044;13.692;2024-03-23T12:58:08;1.90;;;1.70;;
12410;SDS011;6269;51.044;13.692;2024-03-23T13:00:40;2.83;;;2.42;;
12410;SDS011;6269;51.044;13.692;2024-03-23T13:03:13;1.88;;;1.67;;
12410;SDS011;6269;51.044;13.692;2024-03-23T13:05:51;1.70;;;1.60;;
12410;SDS011;6269;51.044;13.692;2024-03-23T13:08:23;1.70;;;1.60;;
12410;SDS011;6269;51.044;13.692;2024-03-23T13:10:54;2.05;;;1.85;;
12410;SDS011;6269;51.044;13.692;2024-03-23T13:13:29;2.30;;;2.10;;
12410;SDS011;6269;51.044;13.692;2024-03-23T13:16:01;2.30;;;2.10;;
12410;SDS011;6269;51.044;13.692;2024-03-23T13:18:34;2.25;;;2.05;;
12410;SDS011;6269;51.044;13.692;2024-03-23T13:21:06;2.00;;;1.90;;
12410;SDS011;6269;51.044;13.692;2024-03-23T13:23:38;1.80;;;1.70;;
12410;SDS011;6269;51.044;13.692;2024-03-23T13:26:10;2.50;;;1.85;;
12410;SDS011;6269;51.044;13.692;2024-03-23T13:28:45;1.88;;;1.77;;
12410;SDS011;6269;51.044;13.692;2024-03-23T13:31:16;1.98;;;1.83;;
12410;SDS011;6269;51.044;13.692;2024-03-23T13:33:50;2.60;;;1.90;;
12410;SDS011;6269;51.044;13.692;2024-03-23T13:36:30;1.67;;;1.58;;
12410;SDS011;6269;51.044;13.692;2024-03-23T13:39:07;2.22;;;1.90;;
12410;SDS011;6269;51.044;13.692;2024-03-23T13:41:48;2.03;;;1.83;;
12410;SDS011;6269;51.044;13.692;2024-03-23T13:44:32;2.28;;;1.90;;
12410;SDS011;6269;51.044;13.692;2024-03-23T13:47:15;3.05;;;1.55;;
12410;SDS011;6269;51.044;13.692;2024-03-23T13:49:55;2.10;;;1.58;;
12410;SDS011;6269;51.044;13.692;2024-03-23T13:52:42;2.00;;;1.35;;
12410;SDS011;6269;51.044;13.692;2024-03-23T13:55:21;3.75;;;1.75;;
12410;SDS011;6269;51.044;13.692;2024-03-23T13:57:53;2.22;;;1.10;;
12410;SDS011;6269;51.044;13.692;2024-03-23T14:03:06;5.15;;;1.30;;
12410;SDS011;6269;51.044;13.692;2024-03-23T14:05:38;1.77;;;1.27;;
12410;SDS011;6269;51.044;13.692;2024-03-23T14:08:13;2.67;;;1.38;;
12410;SDS011;6269;51.044;13.692;2024-03-23T14:10:47;3.08;;;1.50;;
12410;SDS011;6269;51.044;13.692;2024-03-23T14:13:19;3.53;;;1.40;;
12410;SDS011;6269;51.044;13.692;2024-03-23T14:16:00;3.25;;;1.40;;
12410;SDS011;6269;51.044;13.692;2024-03-23T14:18:33;4.00;;;1.40;;
12410;SDS011;6269;51.044;13.692;2024-03-23T14:21:04;3.80;;;1.40;;
12410;SDS011;6269;51.044;13.692;2024-03-23T14:23:36;3.45;;;1.50;;
12410;SDS011;6269;51.044;13.692;2024-03-23T14:26:08;5.20;;;1.42;;
12410;SDS011;6269;51.044;13.692;2024-03-23T14:28:40;2.67;;;1.38;;
12410;SDS011;6269;51.044;13.692;2024-03-23T14:31:14;5.00;;;1.60;;
12410;SDS011;6269;51.044;13.692;2024-03-23T14:33:45;6.53;;;1.73;;
12410;SDS011;6269;51.044;13.692;2024-03-23T14:36:18;2.10;;;1.33;;
12410;SDS011;6269;51.044;13.692;2024-03-23T14:38:49;4.43;;;1.70;;
12410;SDS011;6269;51.044;13.692;2024-03-23T14:41:21;3.47;;;2.08;;
12410;SDS011;6269;51.044;13.692;2024-03-23T14:43:53;3.88;;;1.58;;
12410;SDS011;6269;51.044;13.692;2024-03-23T14:46:27;5.82;;;2.13;;
12410;SDS011;6269;51.044;13.692;2024-03-23T14:49:01;6.07;;;1.80;;
12410;SDS011;6269;51.044;13.692;2024-03-23T14:51:35;4.50;;;1.95;;
12410;SDS011;6269;51.044;13.692;2024-03-23T14:54:07;2.67;;;1.65;;
12410;SDS011;6269;51.044;13.692;2024-03-23T14:56:43;3.67;;;1.50;;
12410;SDS011;6269;51.044;13.692;2024-03-23T14:59:18;3.10;;;1.60;;
12410;SDS011;6269;51.044;13.692;2024-03-23T15:01:53;4.85;;;1.70;;
12410;SDS011;6269;51.044;13.692;2024-03-23T15:04:25;6.22;;;2.00;;
12410;SDS011;6269;51.044;13.692;2024-03-23T15:06:56;4.97;;;2.10;;
12410;SDS011;6269;51.044;13.692;2024-03-23T15:09:28;6.28;;;2.25;;
12410;SDS011;6269;51.044;13.692;2024-03-23T15:12:00;3.22;;;1.70;;
12410;SDS011;6269;51.044;13.692;2024-03-23T15:14:32;3.63;;;1.70;;
12410;SDS011;6269;51.044;13.692;2024-03-23T15:17:06;2.83;;;1.67;;
12410;SDS011;6269;51.044;13.692;2024-03-23T15:19:38;5.60;;;2.10;;
12410;SDS011;6269;51.044;13.692;2024-03-23T15:22:16;5.53;;;2.40;;
12410;SDS011;6269;51.044;13.692;2024-03-23T15:24:52;6.10;;;4.32;;
12410;SDS011;6269;51.044;13.692;2024-03-23T15:27:30;3.85;;;1.90;;
12410;SDS011;6269;51.044;13.692;2024-03-23T15:30:24;3.15;;;2.00;;
12410;SDS011;6269;51.044;13.692;2024-03-23T15:32:58;16.13;;;8.70;;
12410;SDS011;6269;51.044;13.692;2024-03-23T15:35:30;4.60;;;2.30;;
12410;SDS011;6269;51.044;13.692;2024-03-23T15:38:02;86.25;;;39.50;;
12410;SDS011;6269;51.044;13.692;2024-03-23T15:40:34;26.67;;;10.88;;
12410;SDS011;6269;51.044;13.692;2024-03-23T15:43:06;21.95;;;7.97;;
12410;SDS011;6269;51.044;13.692;2024-03-23T15:45:37;4.90;;;2.58;;
12410;SDS011;6269;51.044;13.692;2024-03-23T15:48:12;7.28;;;2.80;;
12410;SDS011;6269;51.044;13.692;2024-03-23T15:50:49;6.03;;;2.25;;
12410;SDS011;6269;51.044;13.692;2024-03-23T15:53:23;5.65;;;2.88;;
12410;SDS011;6269;51.044;13.692;2024-03-23T15:55:57;4.57;;;2.95;;
12410;SDS011;6269;51.044;13.692;2024-03-23T15:58:30;5.72;;;2.45;;
12410;SDS011;6269;51.044;13.692;2024-03-23T16:01:04;6.45;;;2.50;;
12410;SDS011;6269;51.044;13.692;2024-03-23T16:03:39;4.85;;;2.53;;
12410;SDS011;6269;51.044;13.692;2024-03-23T16:06:11;5.18;;;2.63;;
12410;SDS011;6269;51.044;13.692;2024-03-23T16:08:43;6.28;;;2.67;;
12410;SDS011;6269;51.044;13.692;2024-03-23T16:11:15;3.85;;;2.60;;
12410;SDS011;6269;51.044;13.692;2024-03-23T16:13:46;3.75;;;2.50;;
12410;SDS011;6269;51.044;13.692;2024-03-23T16:16:18;5.63;;;2.80;;
12410;SDS011;6269;51.044;13.692;2024-03-23T16:18:52;3.58;;;2.78;;
12410;SDS011;6269;51.044;13.692;2024-03-23T16:21:24;7.18;;;3.08;;
12410;SDS011;6269;51.044;13.692;2024-03-23T16:23:56;5.13;;;2.92;;
12410;SDS011;6269;51.044;13.692;2024-03-23T16:26:28;4.32;;;3.17;;
12410;SDS011;6269;51.044;13.692;2024-03-23T16:29:00;7.82;;;3.50;;
12410;SDS011;6269;51.044;13.692;2024-03-23T16:31:32;6.82;;;3.25;;